Time;durP1;ratioP1;P1;durP2;ratioP2;P2;SDS_P1;SDS_P2;PMS_P1;PMS_P2;Temp;Humidity;BMP_temperature;BMP_pressure;BME280_temperature;BME280_humidity;BME280_pressure;Samples;Min_cycle;Max_cycle;Signal;HPM_P1;HPM_P2
2023/03/12 00:04:44;;;;;;;17.48;11.45;;;;;;;6.10;100.00;99431.38;10413914;28;20133;-78
2023/03/12 00:09:44;;;;;;;14.88;10.95;;;;;;;6.31;100.00;99464.38;10414630;28;20073;-78
2023/03/12 00:14:45;;;;;;;16.85;10.70;;;;;;;6.28;100.00;99449.72;10415194;28;20404;-78
2023/03/12 00:19:50;;;;;;;14.95;10.65;;;;;;;6.09;100.00;99428.91;10413126;28;20111;-79
2023/03/12 00:24:53;;;;;;;14.88;10.18;;;;;;;6.62;100.00;99498.91;10412824;28;20508;-78
2023/03/12 00:29:53;;;;;;;17.85;11.38;;;;;;;6.65;100.00;99492.47;10412380;28;20045;-78
2023/03/12 00:34:55;;;;;;;15.75;10.45;;;;;;;6.04;100.00;99389.00;10413731;28;20037;-79
2023/03/12 00:39:56;;;;;;;19.13;10.52;;;;;;;6.53;100.00;99470.84;10412739;28;20049;-79
2023/03/12 00:44:56;;;;;;;15.55;10.75;;;;;;;6.37;100.00;99426.78;10413792;28;20061;-79
2023/03/12 00:49:57;;;;;;;12.93;9.63;;;;;;;6.65;100.00;99469.53;10413517;28;20052;-78
2023/03/12 00:54:58;;;;;;;15.18;10.80;;;;;;;6.34;100.00;99417.41;10413543;28;20136;-78
2023/03/12 00:59:59;;;;;;;14.02;11.15;;;;;;;6.50;100.00;99466.72;10412839;28;20433;-79
2023/03/12 01:04:59;;;;;;;14.30;10.82;;;;;;;6.02;100.00;99373.38;10412158;28;20493;-78
2023/03/12 01:10:00;;;;;;;16.52;10.65;;;;;;;5.87;100.00;99341.50;10412687;28;20041;-78
2023/03/12 01:15:02;;;;;;;15.35;11.35;;;;;;;6.51;100.00;99452.53;10412491;28;20041;-79
2023/03/12 01:20:04;;;;;;;14.00;10.80;;;;;;;6.48;100.00;99452.88;10412487;28;20030;-77
2023/03/12 01:25:06;;;;;;;14.77;10.70;;;;;;;6.13;100.00;99406.47;10411228;28;20034;-79
2023/03/12 01:30:08;;;;;;;16.65;11.13;;;;;;;6.63;100.00;99493.44;10411854;28;20408;-78
2023/03/12 01:35:09;;;;;;;17.52;11.18;;;;;;;6.16;100.00;99421.97;10419851;28;20132;-79
2023/03/12 01:40:20;;;;;;;14.02;10.85;;;;;;;6.67;100.00;99485.19;10419098;28;20565;-78
2023/03/12 01:45:55;;;;;;;17.80;10.63;;;;;;;6.72;100.00;99494.28;10419020;28;20110;-78
2023/03/12 01:50:56;;;;;;;16.77;11.10;;;;;;;5.96;100.00;99349.47;10419208;28;20136;-79
2023/03/12 01:55:59;;;;;;;14.38;10.27;;;;;;;6.59;100.00;99454.38;10419387;28;20052;-79
2023/03/12 02:01:00;;;;;;;13.32;9.88;;;;;;;6.77;100.00;99480.59;10419127;28;20037;-79
2023/03/12 02:06:05;;;;;;;13.70;9.75;;;;;;;6.71;100.00;99481.25;10418604;28;20049;-79
2023/03/12 02:11:06;;;;;;;13.93;10.00;;;;;;;6.67;100.00;99480.78;10417488;28;20064;-78
2023/03/12 02:16:08;;;;;;;13.25;9.73;;;;;;;5.86;100.00;99354.84;10417843;28;20080;-78
2023/03/12 02:21:17;;;;;;;17.50;11.02;;;;;;;5.94;100.00;99371.53;10418977;28;20076;-78
2023/03/12 02:26:20;;;;;;;15.35;9.93;;;;;;;6.05;100.00;99380.94;10416470;28;20041;-79
2023/03/12 02:31:25;;;;;;;13.52;10.05;;;;;;;6.76;100.00;99495.63;10418438;28;20087;-80
2023/03/12 02:36:26;;;;;;;21.13;10.40;;;;;;;6.61;100.00;99463.78;10417823;28;20037;-79
2023/03/12 02:41:31;;;;;;;14.90;9.63;;;;;;;6.65;100.00;99469.53;10416714;28;20052;-79
2023/03/12 02:46:33;;;;;;;;;;;;;;;7.03;100.00;99488.34;10418043;28;20061;-79
2023/03/12 02:51:34;;;;;;;15.32;9.32;;;;;;;6.62;100.00;99443.50;10417044;28;19921;-79
2023/03/12 02:56:35;;;;;;;14.88;9.48;;;;;;;6.20;100.00;99391.69;10416831;28;20042;-79
2023/03/12 03:01:36;;;;;;;17.45;9.88;;;;;;;6.32;100.00;99424.66;10417191;28;20045;-79
2023/03/12 03:06:40;;;;;;;16.33;10.65;;;;;;;6.62;100.00;99467.25;10416625;28;20042;-79
2023/03/12 03:11:41;;;;;;;15.33;9.17;;;;;;;6.30;100.00;99431.09;10417009;28;20041;-78
2023/03/12 03:16:42;;;;;;;12.70;8.98;;;;;;;6.08;100.00;99403.53;10415471;28;20042;-79
2023/03/12 03:21:43;;;;;;;13.23;9.30;;;;;;;4.90;100.00;99211.22;10415750;28;20477;-79
2023/03/12 03:26:43;;;;;;;14.18;9.35;;;;;;;6.51;100.00;99465.72;10415574;28;20048;-78
2023/03/12 03:31:44;;;;;;;13.20;9.05;;;;;;;6.48;100.00;99449.41;10415088;28;20455;-79
2023/03/12 03:36:45;;;;;;;13.93;9.57;;;;;;;6.59;100.00;99454.38;10414656;28;20425;-79
2023/03/12 03:41:46;;;;;;;15.57;9.70;;;;;;;6.62;100.00;99470.69;10415031;28;20472;-79
2023/03/12 03:46:47;;;;;;;15.73;9.65;;;;;;;6.44;100.00;99442.81;10415419;28;20057;-79
2023/03/12 03:51:50;;;;;;;15.00;9.68;;;;;;;6.44;100.00;99456.00;10435633;28;20109;-79
2023/03/12 03:56:51;;;;;;;15.57;10.07;;;;;;;6.11;100.00;99395.28;10413153;28;20033;-79
2023/03/12 04:01:52;;;;;;;12.75;8.60;;;;;;;6.10;100.00;99396.25;10415043;28;20034;-79
2023/03/12 04:06:52;;;;;;;15.68;10.23;;;;;;;6.34;100.00;99421.84;10414306;28;20045;-79
2023/03/12 04:11:53;;;;;;;15.48;10.05;;;;;;;6.74;100.00;99438.72;10412074;28;20559;-79
2023/03/12 04:16:54;;;;;;;14.73;9.50;;;;;;;6.26;100.00;99354.09;10413135;28;20488;-79
2023/03/12 04:21:55;;;;;;;15.63;9.95;;;;;;;7.01;100.00;99461.28;10412129;28;20033;-80
2023/03/12 04:26:57;;;;;;;18.05;10.75;;;;;;;6.52;100.00;99377.69;10413963;28;20409;-79
2023/03/12 04:31:58;;;;;;;18.90;10.65;;;;;;;6.84;100.00;99421.69;10413564;28;20047;-79
2023/03/12 04:37:02;;;;;;;18.67;10.95;;;;;;;6.80;100.00;99395.81;10413209;28;20382;-79
2023/03/12 04:42:03;;;;;;;21.67;10.95;;;;;;;6.15;100.00;99317.50;10412929;28;20037;-79
2023/03/12 04:47:04;;;;;;;16.92;11.32;;;;;;;7.13;100.00;99491.66;10435379;28;20061;-79
2023/03/12 04:52:05;;;;;;;15.82;11.07;;;;;;;5.38;100.00;99208.84;10454040;28;20606;-79
2023/03/12 04:57:05;;;;;;;14.63;10.55;;;;;;;7.36;100.00;99522.66;10453962;28;20139;-79
2023/03/12 05:02:06;;;;;;;13.80;10.93;;;;;;;7.44;100.00;99515.53;10448800;28;20604;-79
2023/03/12 05:07:07;;;;;;;14.57;9.65;;;;;;;7.28;100.00;99486.50;10416475;28;20528;-80
2023/03/12 05:12:09;;;;;;;14.63;9.93;;;;;;;6.60;100.00;99390.03;10419984;28;20042;-79
2023/03/12 05:17:10;;;;;;;14.70;9.70;;;;;;;7.46;100.00;99534.69;10420229;28;20120;-79
2023/03/12 05:22:11;;;;;;;13.60;8.85;;;;;;;6.66;100.00;99404.38;10419366;28;20187;-79
2023/03/12 05:27:12;;;;;;;15.25;9.00;;;;;;;7.07;100.00;99447.41;10420475;28;20041;-79
2023/03/12 05:32:12;;;;;;;13.95;9.48;;;;;;;7.12;100.00;99462.75;10419558;28;20512;-79
2023/03/12 05:37:13;;;;;;;11.85;8.75;;;;;;;6.87;100.00;99399.41;10419396;28;20041;-79
2023/03/12 05:42:14;;;;;;;14.30;9.55;;;;;;;7.83;100.00;99558.91;10419060;28;20412;-79
2023/03/12 05:47:15;;;;;;;15.95;8.70;;;;;;;7.38;100.00;99479.22;10418642;28;20448;-76
2023/03/12 05:52:16;;;;;;;12.15;9.65;;;;;;;8.00;100.00;99563.97;10435350;28;20056;-79
2023/03/12 05:57:17;;;;;;;13.65;9.82;;;;;;;7.89;100.00;99555.59;10424124;28;20040;-78
2023/03/12 06:02:18;;;;;;;16.17;8.70;;;;;;;7.98;100.00;99589.75;10434262;28;20185;-79
2023/03/12 06:07:19;;;;;;;15.38;10.30;;;;;;;7.09;100.00;99448.09;10436187;28;20037;-78
2023/03/12 06:12:20;;;;;;;21.60;9.40;;;;;;;8.09;100.00;99622.97;10449997;28;20041;-74
2023/03/12 06:17:20;;;;;;;13.02;8.73;;;;;;;6.65;100.00;99397.47;10434268;28;20416;-78
2023/03/12 06:22:21;;;;;;;16.73;8.55;;;;;;;7.83;100.00;99611.78;10459514;28;20037;-79
2023/03/12 06:27:22;;;;;;;12.43;9.18;;;;;;;7.47;100.00;99552.19;10458755;28;20041;-79
2023/03/12 06:32:23;;;;;;;10.93;7.72;;;;;;;7.94;100.00;99630.78;10459190;28;20045;-79
2023/03/12 06:37:24;;;;;;;11.35;7.53;;;;;;;7.20;100.00;99502.38;10459407;28;20041;-79
2023/03/12 06:42:25;;;;;;;15.27;9.75;;;;;;;7.29;100.00;99491.63;10457127;28;20058;-79
2023/03/12 06:47:26;;;;;;;13.90;10.63;;;;;;;7.97;100.00;99611.09;10445441;28;20045;-79
2023/03/12 06:52:27;;;;;;;17.10;11.10;;;;;;;7.32;100.00;99495.75;10416645;28;20037;-79
2023/03/12 06:57:27;;;;;;;16.75;11.90;;;;;;;7.57;100.00;99536.19;10416126;28;20068;-79
2023/03/12 07:02:28;;;;;;;15.98;9.43;;;;;;;7.99;100.00;99585.31;10416719;28;20038;-81
2023/03/12 07:07:29;;;;;;;19.60;13.07;;;;;;;7.71;100.00;99524.88;10417146;28;20038;-78
2023/03/12 07:12:30;;;;;;;13.60;8.63;;;;;;;8.32;100.00;99579.91;10416549;28;20135;-74
2023/03/12 07:17:31;;;;;;;13.52;9.98;;;;;;;8.20;100.00;99537.94;10416331;28;20037;-74
2023/03/12 07:22:31;;;;;;;15.02;8.85;;;;;;;8.66;100.00;99575.13;10415963;28;20508;-75
2023/03/12 07:27:32;;;;;;;13.98;9.27;;;;;;;8.73;100.00;99569.94;10415229;28;20037;-75
2023/03/12 07:32:35;;;;;;;16.35;9.90;;;;;;;8.83;99.95;99577.69;10415615;28;20107;-76
2023/03/12 07:37:36;;;;;;;16.58;12.40;;;;;;;8.86;99.01;99525.19;10415699;28;20038;-76
2023/03/12 07:42:37;;;;;;;45.95;36.20;;;;;;;8.66;99.12;99516.88;10414971;28;20511;-76
2023/03/12 07:47:37;;;;;;;25.85;16.70;;;;;;;9.17;99.30;99565.84;10415593;28;20037;-76
2023/03/12 07:52:38;;;;;;;19.67;11.05;;;;;;;9.23;98.59;99544.75;10414904;28;20049;-76
2023/03/12 07:57:39;;;;;;;15.40;11.00;;;;;;;9.27;98.19;99561.13;10414911;28;20489;-76
2023/03/12 08:02:40;;;;;;;18.40;11.85;;;;;;;9.19;97.91;99554.06;10414410;28;20044;-76
2023/03/12 08:07:41;;;;;;;17.08;12.20;;;;;;;9.09;98.35;99511.94;10416085;28;20065;-76
2023/03/12 08:12:41;;;;;;;16.52;10.57;;;;;;;9.23;97.63;99523.56;10468962;28;20045;-76
2023/03/12 08:17:42;;;;;;;18.92;11.68;;;;;;;9.37;97.33;99561.72;10455159;28;20531;-76
2023/03/12 08:22:43;;;;;;;38.72;13.90;;;;;;;9.39;96.80;99551.72;10414301;28;20046;-75
2023/03/12 08:27:44;;;;;;;35.38;18.40;;;;;;;9.07;96.05;99474.19;10411708;28;20037;-77
2023/03/12 08:32:44;;;;;;;26.08;15.82;;;;;;;9.27;95.29;99511.59;10413440;28;20038;-79
2023/03/12 08:37:45;;;;;;;16.05;12.13;;;;;;;10.07;94.59;99579.06;10413178;28;20041;-77
2023/03/12 08:42:46;;;;;;;19.50;10.75;;;;;;;10.12;92.99;99554.63;10412564;28;20516;-76
2023/03/12 08:47:46;;;;;;;15.43;10.43;;;;;;;10.16;92.41;99506.28;10412564;28;20516;-76
2023/03/12 08:52:48;;;;;;;22.42;11.50;;;;;;;10.89;90.66;99509.78;10423386;28;20037;-75
2023/03/12 08:57:48;;;;;;;52.85;42.22;;;;;;;11.04;89.28;99491.09;10413544;28;20076;-74
2023/03/12 09:02:51;;;;;;;19.05;15.55;;;;;;;11.37;87.71;99520.59;10412916;28;20069;-75
2023/03/12 09:07:51;;;;;;;30.50;18.83;;;;;;;11.49;87.07;99534.19;10412807;28;20045;-75
2023/03/12 09:12:52;;;;;;;21.90;15.10;;;;;;;11.78;86.16;99540.28;10412587;28;20049;-75
2023/03/12 09:17:54;;;;;;;23.10;15.10;;;;;;;11.45;84.04;99470.94;10412620;28;20037;-74
2023/03/12 09:22:55;;;;;;;23.88;17.80;;;;;;;11.85;82.89;99510.09;10412474;28;20103;-74
2023/03/12 09:27:56;;;;;;;26.67;18.05;;;;;;;11.58;83.03;99479.00;10411951;28;20091;-75
2023/03/12 09:32:57;;;;;;;24.80;18.02;;;;;;;12.11;81.96;99535.19;10412143;28;20107;-75
2023/03/12 09:37:58;;;;;;;21.08;16.42;;;;;;;12.29;80.90;99516.84;10412427;28;20413;-75
2023/03/12 09:43:09;;;;;;;20.50;15.75;;;;;;;12.29;79.07;99470.72;10411434;28;20054;-76
2023/03/12 09:48:25;;;;;;;21.52;16.50;;;;;;;12.02;78.36;99456.50;10412013;28;20045;-75
2023/03/12 09:53:31;;;;;;;24.17;13.60;;;;;;;12.61;78.69;99503.00;10413364;28;20052;-76
2023/03/12 09:58:35;;;;;;;15.68;11.57;;;;;;;12.90;77.02;99493.81;10419064;28;20045;-75
2023/03/12 10:04:04;;;;;;;13.30;10.32;;;;;;;13.52;76.16;99497.94;10418310;28;20048;-75
2023/03/12 10:09:25;;;;;;;15.80;11.63;;;;;;;13.88;74.55;99517.97;10446241;28;20041;-76
2023/03/12 10:14:36;;;;;;;15.02;10.90;;;;;;;14.21;75.10;99525.03;10460969;28;20045;-76
2023/03/12 10:20:18;;;;;;;16.05;10.80;;;;;;;14.30;71.76;99486.41;10452652;28;20052;-75
2023/03/12 10:25:30;;;;;;;15.88;11.48;;;;;;;14.32;70.70;99479.78;10418608;28;20053;-75
2023/03/12 10:30:32;;;;;;;37.85;24.60;;;;;;;14.03;72.76;99433.09;10448922;28;20049;-75
2023/03/12 10:35:33;;;;;;;18.95;13.05;;;;;;;14.56;72.84;99529.03;10435538;28;20102;-75
2023/03/12 10:40:35;;;;;;;15.35;12.15;;;;;;;14.52;72.36;99506.44;10458712;28;20566;-76
2023/03/12 10:45:56;;;;;;;17.13;13.13;;;;;;;14.39;70.17;99445.84;10419384;28;20505;-76
2023/03/12 10:51:05;;;;;;;19.70;13.25;;;;;;;14.37;71.23;99489.84;10416745;28;20060;-76
2023/03/12 10:56:12;;;;;;;72.15;42.15;;;;;;;14.13;70.42;99363.19;10418983;28;20481;-75
2023/03/12 11:01:26;;;;;;;38.83;23.95;;;;;;;14.73;69.45;99392.19;10446862;28;20044;-74
2023/03/12 11:06:28;;;;;;;;;;;;;;;15.63;66.38;99470.16;10431382;28;20036;-74
2023/03/12 11:11:34;;;;;;;19.13;14.07;;;;;;;15.22;68.25;99444.81;10421603;28;19921;-74
2023/03/12 11:16:35;;;;;;;20.55;14.00;;;;;;;15.49;68.56;99458.75;10447750;28;20041;-75
2023/03/12 11:21:37;;;;;;;21.83;16.00;;;;;;;15.58;68.09;99459.28;10457643;28;20488;-74
2023/03/12 11:26:49;;;;;;;18.50;13.07;;;;;;;15.45;67.59;99451.41;10455113;28;20055;-74
2023/03/12 11:32:13;;;;;;;15.63;11.43;;;;;;;15.46;66.56;99424.41;10457046;28;20041;-73
2023/03/12 11:37:29;;;;;;;20.15;11.38;;;;;;;15.74;65.93;99465.97;10456024;28;20484;-74
2023/03/12 11:42:45;;;;;;;17.02;11.98;;;;;;;15.63;65.77;99461.31;10466562;28;20059;-74
2023/03/12 11:48:21;;;;;;;44.42;26.60;;;;;;;15.63;66.15;99451.41;10473511;28;20036;-74
2023/03/12 11:53:44;;;;;;;28.17;17.98;;;;;;;15.45;66.34;99444.19;10468423;28;20080;-75
2023/03/12 11:59:26;;;;;;;24.05;14.60;;;;;;;15.62;66.14;99439.09;10472305;28;20115;-74
2023/03/12 12:04:27;;;;;;;16.13;11.87;;;;;;;15.32;67.21;99433.63;10472853;28;20083;-74
2023/03/12 12:09:35;;;;;;;14.90;11.00;;;;;;;15.41;66.99;99447.56;10469391;28;20076;-74
2023/03/12 12:14:55;;;;;;;14.60;9.85;;;;;;;15.46;66.10;99455.72;10468075;28;20051;-74
2023/03/12 12:20:24;;;;;;;16.70;10.30;;;;;;;15.13;66.05;99429.28;10465928;28;20039;-74
2023/03/12 12:25:56;;;;;;;31.75;18.67;;;;;;;15.41;66.45;99483.16;10470288;28;20404;-74
2023/03/12 12:31:18;;;;;;;19.25;11.32;;;;;;;15.35;66.30;99462.63;10469060;28;20408;-74
2023/03/12 12:36:19;;;;;;;17.92;11.75;;;;;;;15.15;67.04;99429.88;10454932;28;20080;-74
2023/03/12 12:41:24;;;;;;;24.42;12.48;;;;;;;14.44;66.56;99313.44;10443293;28;20060;-74
2023/03/12 12:46:31;;;;;;;59.75;35.88;;;;;;;14.73;66.92;99418.94;10432060;28;20150;-75
2023/03/12 12:51:39;;;;;;;18.70;12.93;;;;;;;14.23;67.37;99406.28;10427556;28;20062;-74
2023/03/12 12:56:44;;;;;;;18.80;12.05;;;;;;;14.83;68.15;99491.44;10413231;28;20129;-73
2023/03/12 13:01:46;;;;;;;19.13;11.68;;;;;;;14.44;68.39;99437.16;10413318;28;20393;-74
2023/03/12 13:07:00;;;;;;;45.67;29.35;;;;;;;13.50;68.78;99304.41;10412856;28;20050;-74
2023/03/12 13:12:33;;;;;;;26.60;14.60;;;;;;;14.75;67.46;99491.72;10412754;28;20140;-74
2023/03/12 13:17:55;;;;;;;47.77;25.50;;;;;;;14.60;67.74;99474.13;10404677;28;20123;-74
2023/03/12 13:23:24;;;;;;;24.73;12.60;;;;;;;14.39;67.49;99431.69;10412395;28;20048;-74
2023/03/12 13:28:29;;;;;;;23.13;13.93;;;;;;;14.66;67.98;99498.34;10417082;28;20041;-74
2023/03/12 13:33:41;;;;;;;43.13;22.60;;;;;;;14.49;67.47;99480.13;10420407;28;20103;-73
2023/03/12 13:39:30;;;;;;;40.22;18.15;;;;;;;14.51;67.30;99488.78;10419693;28;20049;-74
2023/03/12 13:44:39;;;;;;;32.40;18.00;;;;;;;14.09;68.64;99420.72;10357420;28;20089;-75
2023/03/12 13:49:53;;;;;;;31.45;17.38;;;;;;;14.01;68.90;99467.19;10436728;28;20475;-74
2023/03/12 13:55:05;;;;;;;18.33;10.07;;;;;;;13.84;70.03;99458.03;10446153;28;20144;-75
2023/03/12 14:00:25;;;;;;;10.25;7.45;;;;;;;13.70;69.86;99455.41;10420338;28;20037;-74
2023/03/12 14:05:28;;;;;;;16.20;8.82;;;;;;;13.58;69.19;99469.59;10418643;28;20049;-75
2023/03/12 14:10:46;;;;;;;11.85;8.65;;;;;;;13.60;69.90;99492.38;10453463;28;20047;-75
2023/03/12 14:16:06;;;;;;;22.75;15.68;;;;;;;12.73;69.56;99371.63;10459840;28;20036;-75
2023/03/12 14:21:13;;;;;;;28.77;19.33;;;;;;;13.41;70.20;99498.56;10459648;28;20461;-75
2023/03/12 14:26:23;;;;;;;28.20;14.57;;;;;;;13.26;70.75;99487.31;10457725;28;20045;-75
2023/03/12 14:31:27;;;;;;;24.40;14.77;;;;;;;13.27;70.90;99518.28;10417778;28;20038;-75
2023/03/12 14:36:46;;;;;;;33.80;15.63;;;;;;;12.96;71.48;99474.34;10434404;28;20037;-76
2023/03/12 14:41:54;;;;;;;44.65;24.98;;;;;;;12.93;72.35;99504.91;10458462;28;20082;-76
2023/03/12 14:47:01;;;;;;;38.53;20.33;;;;;;;12.91;73.10;99527.44;10454630;28;20069;-74
2023/03/12 14:52:01;;;;;;;34.78;19.35;;;;;;;12.83;72.90;99547.09;10436514;28;20045;-75
2023/03/12 14:57:02;;;;;;;39.13;22.55;;;;;;;11.74;72.77;99372.25;10452029;28;20045;-77
2023/03/12 15:02:24;;;;;;;35.25;19.50;;;;;;;12.74;73.74;99546.50;10422927;28;20107;-74
2023/03/12 15:07:30;;;;;;;162.98;133.45;;;;;;;12.38;74.17;99506.81;10428570;28;20569;-75
2023/03/12 15:12:36;;;;;;;91.13;62.28;;;;;;;12.34;74.45;99527.72;10430510;28;20128;-75
2023/03/12 15:17:37;;;;;;;151.68;119.38;;;;;;;12.09;74.81;99530.06;10416383;28;20052;-75
2023/03/12 15:22:39;;;;;;;153.45;123.95;;;;;;;12.14;75.76;99541.97;10426400;28;20048;-75
2023/03/12 15:27:40;;;;;;;116.80;89.57;;;;;;;11.78;75.81;99519.81;10415135;28;20037;-75
2023/03/12 15:32:40;;;;;;;82.28;51.75;;;;;;;11.90;76.33;99559.25;10431771;28;20385;-75
2023/03/12 15:37:49;;;;;;;57.80;36.38;;;;;;;11.68;76.81;99518.56;10421156;28;20044;-75
2023/03/12 15:42:53;;;;;;;62.53;42.58;;;;;;;11.52;76.34;99540.97;10417603;28;20533;-75
2023/03/12 15:47:54;;;;;;;47.37;29.10;;;;;;;11.51;76.76;99533.97;10429766;28;20528;-75
2023/03/12 15:53:06;;;;;;;59.03;31.48;;;;;;;11.41;77.55;99572.38;10454566;28;20151;-75
2023/03/12 15:58:31;;;;;;;74.18;37.92;;;;;;;11.34;79.54;99562.72;10437692;28;20099;-75
2023/03/12 16:03:32;;;;;;;67.80;40.25;;;;;;;11.23;78.10;99548.09;10427978;28;20490;-76
2023/03/12 16:08:43;;;;;;;50.08;25.45;;;;;;;11.11;79.33;99570.88;10415885;28;20040;-76
2023/03/12 16:13:46;;;;;;;55.78;30.52;;;;;;;10.63;79.04;99538.72;10419659;28;20916;-76
2023/03/12 16:18:46;;;;;;;41.80;22.77;;;;;;;9.94;79.24;99449.69;10424460;28;20044;-74
2023/03/12 16:23:47;;;;;;;78.18;45.45;;;;;;;10.10;79.75;99480.50;10428057;28;20502;-74
2023/03/12 16:28:48;;;;;;;58.03;33.78;;;;;;;10.53;79.94;99560.28;10426970;28;20429;-75
2023/03/12 16:33:49;;;;;;;57.10;35.55;;;;;;;10.15;79.59;99506.50;10423815;28;20053;-75
2023/03/12 16:38:50;;;;;;;60.63;34.28;;;;;;;10.00;79.86;99494.06;10422565;28;20041;-75
2023/03/12 16:43:52;;;;;;;82.53;41.00;;;;;;;10.65;80.62;99619.88;10439420;28;20144;-74
2023/03/12 16:48:53;;;;;;;162.32;67.47;;;;;;;10.47;81.04;99614.97;10446529;28;20049;-75
2023/03/12 16:53:55;;;;;;;150.20;58.75;;;;;;;10.35;81.78;99613.78;10443644;28;20052;-74
2023/03/12 16:58:58;;;;;;;91.05;39.85;;;;;;;9.87;82.33;99576.16;10431302;28;20076;-74
2023/03/12 17:03:59;;;;;;;110.47;50.00;;;;;;;9.90;82.84;99594.34;10444314;28;20080;-75
2023/03/12 17:09:01;;;;;;;107.47;45.85;;;;;;;9.75;83.02;99588.19;10421013;28;20077;-73
2023/03/12 17:14:07;;;;;;;141.68;53.50;;;;;;;9.18;83.51;99527.75;10419793;28;20465;-75
2023/03/12 17:19:07;;;;;;;109.38;48.53;;;;;;;9.35;83.98;99598.16;10420520;28;20477;-76
2023/03/12 17:24:12;;;;;;;101.28;43.85;;;;;;;8.75;84.24;99509.69;10430592;28;20049;-76
2023/03/12 17:29:13;;;;;;;73.47;37.63;;;;;;;8.65;84.43;99504.66;10436152;28;20512;-76
2023/03/12 17:34:14;;;;;;;65.93;28.25;;;;;;;8.77;84.99;99544.78;10418862;28;20038;-76
2023/03/12 17:39:15;;;;;;;65.22;30.77;;;;;;;8.91;85.75;99589.06;10458665;28;20037;-76
2023/03/12 17:44:16;;;;;;;83.60;33.70;;;;;;;8.76;86.13;99582.00;10460953;28;20060;-76
2023/03/12 17:49:17;;;;;;;49.03;24.17;;;;;;;8.78;85.95;99593.25;10461271;28;20417;-76
2023/03/12 17:54:17;;;;;;;45.15;22.65;;;;;;;8.58;86.23;99598.16;10427758;28;20044;-76
2023/03/12 17:59:18;;;;;;;37.95;19.33;;;;;;;7.57;86.69;99466.63;10418762;28;20498;-76
2023/03/12 18:04:19;;;;;;;55.40;23.13;;;;;;;7.70;87.19;99486.25;10418670;28;20440;-77
2023/03/12 18:09:20;;;;;;;64.95;36.25;;;;;;;8.16;87.68;99571.03;10418235;28;20049;-77
2023/03/12 18:14:20;;;;;;;40.88;20.55;;;;;;;7.71;87.65;99506.38;10417630;28;20041;-76
2023/03/12 18:19:22;;;;;;;41.25;21.38;;;;;;;7.88;88.12;99559.22;10418667;28;20386;-76
2023/03/12 18:24:23;;;;;;;28.00;16.45;;;;;;;7.54;88.40;99550.56;10417710;28;20041;-76
2023/03/12 18:29:24;;;;;;;41.05;16.00;;;;;;;7.23;88.97;99508.13;10417812;28;20045;-76
2023/03/12 18:34:25;;;;;;;35.95;16.67;;;;;;;7.70;89.30;99599.09;10418161;28;20037;-77
2023/03/12 18:39:26;;;;;;;41.65;19.13;;;;;;;7.42;90.11;99586.25;10418676;28;20037;-77
2023/03/12 18:44:26;;;;;;;31.73;18.13;;;;;;;7.65;90.23;99615.44;10417691;28;20126;-77
2023/03/12 18:49:27;;;;;;;36.10;16.42;;;;;;;7.52;90.28;99623.88;10416799;28;20041;-77
2023/03/12 18:54:28;;;;;;;36.95;17.65;;;;;;;7.18;90.35;99568.59;10417374;28;20048;-77
2023/03/12 18:59:29;;;;;;;80.50;43.63;;;;;;;7.44;90.59;99610.66;10417930;28;20107;-76
2023/03/12 19:04:29;;;;;;;69.78;42.92;;;;;;;7.28;91.33;99605.41;10417075;28;20551;-76
2023/03/12 19:09:30;;;;;;;77.32;46.35;;;;;;;7.05;91.23;99539.19;10416153;28;20060;-77
2023/03/12 19:14:31;;;;;;;43.40;26.23;;;;;;;7.30;91.54;99579.66;10416520;28;20044;-79
2023/03/12 19:19:31;;;;;;;45.58;26.70;;;;;;;7.42;91.66;99601.25;10416718;28;20048;-77
2023/03/12 19:24:32;;;;;;;70.53;42.10;;;;;;;7.13;91.63;99559.50;10415690;28;20041;-77
2023/03/12 19:29:33;;;;;;;40.10;24.63;;;;;;;7.40;91.33;99603.25;10415704;28;20041;-77
2023/03/12 19:34:34;;;;;;;35.38;21.50;;;;;;;6.96;90.72;99585.06;10415759;28;20063;-78
2023/03/12 19:39:34;;;;;;;60.22;32.92;;;;;;;7.11;90.99;99607.19;10415950;28;20041;-78
2023/03/12 19:44:37;;;;;;;48.63;28.83;;;;;;;6.95;92.35;99580.78;10415482;28;20065;-77
2023/03/12 19:49:38;;;;;;;87.70;46.03;;;;;;;6.93;92.44;99586.22;10414628;28;20044;-77
2023/03/12 19:54:39;;;;;;;96.07;47.53;;;;;;;6.86;93.21;99586.03;10414301;28;20048;-78
2023/03/12 19:59:39;;;;;;;92.97;46.30;;;;;;;6.66;92.72;99591.78;10414834;28;20037;-82
2023/03/12 20:04:40;;;;;;;83.15;41.20;;;;;;;6.36;92.15;99568.41;10421666;28;20045;-78
2023/03/12 20:09:41;;;;;;;51.67;30.80;;;;;;;5.86;92.63;99511.19;10435704;28;20041;-78
2023/03/12 20:14:42;;;;;;;55.20;29.67;;;;;;;6.00;92.62;99522.16;10455438;28;20052;-78
2023/03/12 20:19:42;;;;;;;54.58;30.10;;;;;;;6.25;92.99;99599.53;10449603;28;20061;-77
2023/03/12 20:24:43;;;;;;;74.10;33.42;;;;;;;6.00;93.60;99583.59;10422521;28;20049;-78
2023/03/12 20:29:48;;;;;;;53.67;28.30;;;;;;;5.62;93.29;99540.03;10413706;28;20076;-78
2023/03/12 20:34:49;;;;;;;50.95;27.35;;;;;;;5.93;93.19;99616.84;10411966;28;20108;-78
2023/03/12 20:39:50;;;;;;;38.17;20.25;;;;;;;5.68;92.28;99598.22;10413005;28;20041;-77
2023/03/12 20:44:51;;;;;;;37.45;20.25;;;;;;;5.34;92.77;99573.59;10413618;28;20060;-77
2023/03/12 20:49:52;;;;;;;47.40;24.00;;;;;;;4.99;93.22;99505.03;10413335;28;20493;-77
2023/03/12 20:54:52;;;;;;;43.40;21.98;;;;;;;5.63;93.53;99597.03;10413519;28;20053;-77
2023/03/12 20:59:53;;;;;;;40.72;21.92;;;;;;;5.55;93.19;99602.25;10413180;28;20080;-77
2023/03/12 21:04:54;;;;;;;54.72;27.52;;;;;;;5.27;93.15;99557.59;10411924;28;20140;-77
2023/03/12 21:09:54;;;;;;;132.90;65.65;;;;;;;5.65;93.64;99603.81;10412110;28;20541;-77
2023/03/12 21:15:04;;;;;;;137.07;63.70;;;;;;;5.40;93.32;99580.91;10412864;28;20034;-77
2023/03/12 21:20:12;;;;;;;56.95;30.45;;;;;;;4.88;94.42;99533.41;10411996;28;20042;-77
2023/03/12 21:25:13;;;;;;;52.03;27.70;;;;;;;4.84;94.12;99506.56;10411913;28;20045;-77
2023/03/12 21:30:14;;;;;;;71.43;34.55;;;;;;;5.36;94.80;99600.63;10412919;28;20401;-77
2023/03/12 21:35:14;;;;;;;209.73;108.50;;;;;;;5.29;94.81;99581.94;10412478;28;20049;-77
2023/03/12 21:40:15;;;;;;;93.07;43.17;;;;;;;5.39;95.60;99597.69;10411493;28;20037;-77
2023/03/12 21:45:16;;;;;;;70.18;36.80;;;;;;;5.14;95.96;99570.31;10411604;28;20103;-77
2023/03/12 21:50:17;;;;;;;60.20;30.23;;;;;;;5.20;95.04;99602.13;10418387;28;20124;-77
2023/03/12 21:55:18;;;;;;;67.03;33.58;;;;;;;5.22;94.40;99621.25;10418594;28;20055;-77
2023/03/12 22:00:19;;;;;;;67.07;36.10;;;;;;;5.02;94.57;99625.81;10419320;28;20044;-78
2023/03/12 22:05:20;;;;;;;67.90;38.20;;;;;;;5.22;95.36;99679.16;10418478;28;20076;-77
2023/03/12 22:10:20;;;;;;;49.75;25.50;;;;;;;5.34;96.09;99668.41;10419573;28;20139;-77
2023/03/12 22:15:22;;;;;;;31.20;18.50;;;;;;;5.15;97.36;99579.88;10419388;28;20038;-78
2023/03/12 22:20:23;;;;;;;24.08;16.55;;;;;;;5.09;97.90;99535.75;10418141;28;20131;-77
2023/03/12 22:25:24;;;;;;;22.48;15.38;;;;;;;6.22;99.13;99660.50;10418552;28;20207;-78
2023/03/12 22:30:24;;;;;;;22.23;15.20;;;;;;;6.34;98.65;99653.97;10417991;28;20108;-77
2023/03/12 22:35:26;;;;;;;18.25;13.50;;;;;;;6.40;99.24;99656.84;10428986;28;20493;-78
2023/03/12 22:40:26;;;;;;;19.38;14.07;;;;;;;6.37;99.10;99637.81;10417584;28;20037;-77
2023/03/12 22:45:27;;;;;;;25.90;13.57;;;;;;;6.08;99.28;99580.19;10417172;28;20119;-78
2023/03/12 22:50:28;;;;;;;23.10;13.10;;;;;;;5.79;98.79;99512.78;10417138;28;20049;-77
2023/03/12 22:55:29;;;;;;;17.25;12.73;;;;;;;6.24;99.08;99579.44;10416889;28;20438;-77
2023/03/12 23:00:29;;;;;;;34.40;17.95;;;;;;;5.80;98.94;99500.44;10417594;28;20045;-78
2023/03/12 23:05:30;;;;;;;23.80;17.58;;;;;;;5.38;98.93;99494.13;10416731;28;20041;-78
2023/03/12 23:10:31;;;;;;;27.70;16.85;;;;;;;5.42;98.72;99535.00;10416356;28;20038;-77
2023/03/12 23:15:32;;;;;;;26.65;18.05;;;;;;;5.69;99.39;99575.34;10416047;28;20386;-77